Time;durP1;ratioP1;P1;durP2;ratioP2;P2;SDS_P1;SDS_P2;PMS_P1;PMS_P2;Temp;Humidity;BMP_temperature;BMP_pressure;BME280_temperature;BME280_humidity;BME280_pressure;Samples;Min_cycle;Max_cycle;Signal;HPM_P1;HPM_P2
2021/04/06 00:00:02;;;;;;;17.38;2.10;;;1.30;95.60;;;;;;5026104;28;20238;-83
2021/04/06 00:02:30;;;;;;;8.38;2.15;;;1.30;96.10;;;;;;5011915;28;20224;-83
2021/04/06 00:05:01;;;;;;;3.47;1.75;;;1.30;95.90;;;;;;5020362;28;20223;-84
2021/04/06 00:07:30;;;;;;;5.25;1.80;;;1.20;97.00;;;;;;5022550;28;20226;-83
2021/04/06 00:10:03;;;;;;;5.60;2.28;;;1.20;97.00;;;;;;5027818;28;20220;-83
2021/04/06 00:12:31;;;;;;;1.60;1.50;;;1.20;96.40;;;;;;5019307;28;20328;-83
2021/04/06 00:15:01;;;;;;;13.50;1.88;;;1.30;96.00;;;;;;5007271;28;20230;-83
2021/04/06 00:17:30;;;;;;;3.63;1.88;;;1.40;96.00;;;;;;5026780;28;20224;-83
2021/04/06 00:20:00;;;;;;;9.00;2.15;;;1.40;97.40;;;;;;5027641;28;20225;-83
2021/04/06 00:22:30;;;;;;;3.20;1.65;;;1.40;96.00;;;;;;5024581;28;20232;-83
2021/04/06 00:24:58;;;;;;;2.55;1.55;;;1.30;97.30;;;;;;5025248;28;20296;-83
2021/04/06 00:27:30;;;;;;;3.10;1.45;;;1.30;97.80;;;;;;5027311;28;20307;-84
2021/04/06 00:30:03;;;;;;;6.78;1.20;;;1.20;98.70;;;;;;5023326;28;20237;-84
2021/04/06 00:32:31;;;;;;;2.17;1.33;;;1.10;98.10;;;;;;5016651;28;20238;-84
2021/04/06 00:35:01;;;;;;;3.00;1.50;;;1.20;98.00;;;;;;5020858;28;20242;-83
2021/04/06 00:37:29;;;;;;;12.38;2.88;;;1.20;97.30;;;;;;5031427;28;20303;-84
2021/04/06 00:40:05;;;;;;;6.18;2.10;;;1.30;96.80;;;;;;5020561;28;20225;-84
2021/04/06 00:42:33;;;;;;;4.70;2.67;;;1.30;97.10;;;;;;5018826;28;20242;-84
2021/04/06 00:45:09;;;;;;;3.78;2.17;;;1.40;96.50;;;;;;5027759;28;20328;-84
2021/04/06 00:47:37;;;;;;;2.97;2.05;;;1.50;96.40;;;;;;5032397;28;20228;-83
2021/04/06 00:50:07;;;;;;;2.88;1.75;;;1.50;96.10;;;;;;5025358;28;20236;-83
2021/04/06 00:52:34;;;;;;;13.98;2.20;;;1.60;95.40;;;;;;5027264;28;20324;-83
2021/04/06 00:55:02;;;;;;;7.72;1.70;;;1.60;95.40;;;;;;5025562;28;20249;-83
2021/04/06 00:57:32;;;;;;;5.40;1.95;;;1.60;95.80;;;;;;5015483;28;20223;-83
2021/04/06 01:00:13;;;;;;;5.03;1.70;;;1.50;95.80;;;;;;5017525;28;20746;-82
2021/04/06 01:02:56;;;;;;;6.20;1.92;;;1.60;95.50;;;;;;5028061;28;20319;-83
2021/04/06 01:05:24;;;;;;;2.47;1.80;;;1.60;95.90;;;;;;5023319;28;20228;-83
2021/04/06 01:07:52;;;;;;;3.55;1.38;;;1.60;96.00;;;;;;5020154;28;20765;-83
2021/04/06 01:10:20;;;;;;;6.95;2.90;;;1.60;96.20;;;;;;5020857;28;20232;-83
2021/04/06 01:12:47;;;;;;;9.07;1.85;;;1.70;96.10;;;;;;5012476;28;21006;-83
2021/04/06 01:15:14;;;;;;;6.05;2.03;;;1.60;96.70;;;;;;5024426;28;20225;-84
2021/04/06 01:17:42;;;;;;;6.05;1.90;;;1.60;96.30;;;;;;5025744;28;20228;-84
2021/04/06 01:20:13;;;;;;;8.75;2.40;;;1.70;96.30;;;;;;5026363;28;20232;-84
2021/04/06 01:22:41;;;;;;;7.90;2.22;;;1.70;96.60;;;;;;5026937;28;20229;-83
2021/04/06 01:25:17;;;;;;;11.38;1.80;;;1.70;96.90;;;;;;5026452;28;20236;-83
2021/04/06 01:27:48;;;;;;;8.25;2.22;;;1.80;96.90;;;;;;5026779;28;20224;-83
2021/04/06 01:30:21;;;;;;;5.53;1.80;;;1.80;97.30;;;;;;5028365;28;20316;-83
2021/04/06 01:32:50;;;;;;;2.75;1.65;;;1.80;97.60;;;;;;5027789;28;20235;-84
2021/04/06 01:35:18;;;;;;;1.95;1.40;;;1.80;98.20;;;;;;5022918;28;20241;-83
2021/04/06 01:37:45;;;;;;;2.97;2.72;;;1.80;98.30;;;;;;5025574;28;20244;-83
2021/04/06 01:40:14;;;;;;;3.60;2.13;;;1.80;98.30;;;;;;5027433;28;20254;-83
2021/04/06 01:42:41;;;;;;;3.15;1.70;;;1.80;99.70;;;;;;5025855;28;20239;-84
2021/04/06 01:45:16;;;;;;;7.35;1.90;;;1.90;98.90;;;;;;5027446;28;20220;-83
2021/04/06 01:47:43;;;;;;;5.28;1.98;;;1.90;98.70;;;;;;5024349;28;20318;-85
2021/04/06 01:50:11;;;;;;;4.55;1.85;;;1.90;98.60;;;;;;5008736;28;20225;-83
2021/04/06 01:52:39;;;;;;;6.40;1.70;;;1.90;99.10;;;;;;5028468;28;20229;-85
2021/04/06 01:55:13;;;;;;;6.90;2.75;;;2.00;98.90;;;;;;5014863;28;20259;-84
2021/04/06 01:57:46;;;;;;;5.78;2.30;;;2.00;98.70;;;;;;5018312;28;20240;-84
2021/04/06 02:00:23;;;;;;;3.47;2.28;;;2.00;98.60;;;;;;5017624;28;20219;-84
2021/04/06 02:02:51;;;;;;;3.00;2.28;;;2.00;98.10;;;;;;5042899;28;20231;-84
2021/04/06 02:05:18;;;;;;;5.00;2.20;;;1.90;98.30;;;;;;5035353;28;20208;-83
2021/04/06 02:07:47;;;;;;;4.57;2.38;;;2.00;98.50;;;;;;5035453;28;20299;-83
2021/04/06 02:10:15;;;;;;;5.35;2.13;;;2.10;98.30;;;;;;5035394;28;20219;-83
2021/04/06 02:12:43;;;;;;;6.93;2.45;;;2.10;98.20;;;;;;5032735;28;20232;-84
2021/04/06 02:15:13;;;;;;;5.47;2.63;;;2.00;98.00;;;;;;5015884;28;20244;-84
2021/04/06 02:17:51;;;;;;;5.57;2.13;;;2.00;97.90;;;;;;5034827;28;20244;-83
2021/04/06 02:20:25;;;;;;;9.65;1.88;;;2.00;97.70;;;;;;5029068;28;20229;-83
2021/04/06 02:22:58;;;;;;;5.13;3.08;;;2.10;97.60;;;;;;5018924;28;20228;-83
2021/04/06 02:25:25;;;;;;;4.90;2.15;;;2.10;98.50;;;;;;5018025;28;20239;-83
2021/04/06 02:27:53;;;;;;;4.72;1.95;;;2.10;98.60;;;;;;5013205;28;20217;-83
2021/04/06 02:30:29;;;;;;;4.72;2.10;;;2.00;99.30;;;;;;5016490;28;20242;-83
2021/04/06 02:32:58;;;;;;;2.42;1.95;;;2.00;99.30;;;;;;5010380;28;20228;-82
2021/04/06 02:35:26;;;;;;;2.42;2.03;;;2.00;98.80;;;;;;5021755;28;20240;-83
2021/04/06 02:37:54;;;;;;;4.97;2.13;;;2.10;99.30;;;;;;5012976;28;20221;-83
2021/04/06 02:40:23;;;;;;;4.20;1.98;;;2.10;99.80;;;;;;5007721;28;20320;-84
2021/04/06 02:42:55;;;;;;;5.00;2.63;;;2.10;99.60;;;;;;5023377;28;20238;-83
2021/04/06 02:45:24;;;;;;;6.43;1.90;;;2.10;99.20;;;;;;5015522;28;20235;-83
2021/04/06 02:47:52;;;;;;;2.10;1.90;;;2.10;99.10;;;;;;5024385;28;20225;-83
2021/04/06 02:50:22;;;;;;;4.95;1.83;;;2.20;99.00;;;;;;5029180;28;20723;-84
2021/04/06 02:52:50;;;;;;;3.35;2.45;;;2.20;98.80;;;;;;5025882;28;20259;-84
2021/04/06 02:55:18;;;;;;;3.67;2.05;;;2.10;99.80;;;;;;5020007;28;20282;-83
2021/04/06 02:57:47;;;;;;;5.20;2.63;;;2.10;99.50;;;;;;5020042;28;20700;-83
2021/04/06 03:00:33;;;;;;;2.83;1.85;;;2.10;99.80;;;;;;5011969;28;20224;-84
2021/04/06 03:03:01;;;;;;;4.65;2.10;;;2.00;99.80;;;;;;5040033;28;20240;-83
2021/04/06 03:05:29;;;;;;;4.05;2.50;;;1.90;99.80;;;;;;5026548;28;20231;-83
2021/04/06 03:07:57;;;;;;;3.38;2.00;;;1.70;99.80;;;;;;5021945;28;20247;-83
2021/04/06 03:10:24;;;;;;;8.95;2.72;;;1.60;99.80;;;;;;5024688;28;20227;-83
2021/04/06 03:12:52;;;;;;;6.13;2.05;;;1.70;99.80;;;;;;5010955;28;20232;-83
2021/04/06 03:15:23;;;;;;;2.83;2.47;;;1.70;99.80;;;;;;5018014;28;20235;-84
2021/04/06 03:17:54;;;;;;;7.40;2.42;;;1.80;99.80;;;;;;5026506;28;20684;-84
2021/04/06 03:20:23;;;;;;;2.35;2.15;;;1.80;99.80;;;;;;5024806;28;20232;-83
2021/04/06 03:22:52;;;;;;;6.85;2.20;;;1.80;99.80;;;;;;5027957;28;20243;-83
2021/04/06 03:25:20;;;;;;;4.88;2.60;;;1.90;99.80;;;;;;5024651;28;20642;-82
2021/04/06 03:27:48;;;;;;;5.82;2.83;;;2.00;99.80;;;;;;5017164;28;20223;-83
2021/04/06 03:30:31;;;;;;;3.95;2.60;;;2.00;99.80;;;;;;5012301;28;20240;-83
2021/04/06 03:33:01;;;;;;;5.15;2.85;;;1.80;99.80;;;;;;5027984;28;20228;-83
2021/04/06 03:35:28;;;;;;;8.32;3.35;;;1.70;99.80;;;;;;5026861;28;20232;-82
2021/04/06 03:37:56;;;;;;;5.22;2.88;;;1.60;99.80;;;;;;5008092;28;20228;-83
2021/04/06 03:40:24;;;;;;;3.53;2.80;;;1.50;99.80;;;;;;5021494;28;20733;-83
2021/04/06 03:42:51;;;;;;;3.00;2.70;;;1.40;99.80;;;;;;5029597;28;21177;-83
2021/04/06 03:45:18;;;;;;;6.75;2.70;;;1.40;99.80;;;;;;5015856;28;20228;-83
2021/04/06 03:47:52;;;;;;;2.92;2.35;;;1.40;99.80;;;;;;5029221;28;21485;-83
2021/04/06 03:50:33;;;;;;;5.22;2.70;;;1.40;99.80;;;;;;5026366;28;20225;-82
2021/04/06 03:53:01;;;;;;;2.58;2.38;;;1.40;99.80;;;;;;5027800;28;20239;-83
2021/04/06 03:55:28;;;;;;;4.47;2.97;;;1.50;99.80;;;;;;5029025;28;20232;-83
2021/04/06 03:58:04;;;;;;;9.23;2.75;;;1.60;99.80;;;;;;5015675;28;20233;-84
2021/04/06 04:00:31;;;;;;;7.97;3.40;;;1.60;99.80;;;;;;5014496;28;20231;-83
2021/04/06 04:02:59;;;;;;;9.13;3.63;;;1.60;99.80;;;;;;5024227;28;20244;-83
2021/04/06 04:05:26;;;;;;;6.60;3.90;;;1.60;99.80;;;;;;5024702;28;20224;-83
2021/04/06 04:07:54;;;;;;;6.30;3.42;;;1.60;99.80;;;;;;5014726;28;20277;-82
2021/04/06 04:10:22;;;;;;;3.40;2.97;;;1.70;99.80;;;;;;5023602;28;20234;-83
2021/04/06 04:12:49;;;;;;;8.65;3.70;;;1.80;99.80;;;;;;5003591;28;20231;-82
2021/04/06 04:15:16;;;;;;;5.90;2.90;;;1.80;99.80;;;;;;5015007;28;20240;-82
2021/04/06 04:17:47;;;;;;;8.30;2.80;;;1.70;99.80;;;;;;5026478;28;20286;-84
2021/04/06 04:20:16;;;;;;;5.65;2.78;;;1.70;99.80;;;;;;5010269;28;20234;-83
2021/04/06 04:22:43;;;;;;;6.07;3.28;;;1.70;99.80;;;;;;5013036;28;20597;-84
2021/04/06 04:25:12;;;;;;;6.00;2.65;;;1.70;99.80;;;;;;5026246;28;20232;-83
2021/04/06 04:27:40;;;;;;;5.70;3.15;;;1.70;99.80;;;;;;4988873;28;20222;-83
2021/04/06 04:30:08;;;;;;;4.28;2.88;;;1.70;99.80;;;;;;5006977;28;20224;-84
2021/04/06 04:32:38;;;;;;;5.88;2.63;;;1.70;99.80;;;;;;5021875;28;20232;-84
2021/04/06 04:35:07;;;;;;;7.43;2.65;;;1.70;99.80;;;;;;5030238;28;20261;-84
2021/04/06 04:37:34;;;;;;;6.95;3.08;;;1.70;99.80;;;;;;5025128;28;20722;-83
2021/04/06 04:40:02;;;;;;;7.75;3.00;;;1.70;99.80;;;;;;5020451;28;20242;-84
2021/04/06 04:42:32;;;;;;;2.95;2.17;;;1.60;99.80;;;;;;5014293;28;20227;-84
2021/04/06 04:44:59;;;;;;;2.85;2.25;;;1.60;99.80;;;;;;5015000;28;20584;-82
2021/04/06 04:47:26;;;;;;;2.38;2.17;;;1.50;99.80;;;;;;5015399;28;20231;-83
2021/04/06 04:49:53;;;;;;;6.57;2.20;;;1.50;99.80;;;;;;5035522;28;20229;-83
2021/04/06 04:52:21;;;;;;;1.70;1.60;;;1.50;99.80;;;;;;5023919;28;20231;-83
2021/04/06 04:54:48;;;;;;;4.13;2.13;;;1.40;99.80;;;;;;5019182;28;20271;-83
2021/04/06 04:57:15;;;;;;;2.60;2.20;;;1.40;99.80;;;;;;5033062;28;20596;-83
2021/04/06 04:59:43;;;;;;;3.15;1.73;;;1.40;99.80;;;;;;5022657;28;20286;-83
2021/04/06 05:02:09;;;;;;;2.80;2.60;;;1.40;99.80;;;;;;5019452;28;20228;-83
2021/04/06 05:04:36;;;;;;;3.28;2.47;;;1.40;99.80;;;;;;5029155;28;20235;-84
2021/04/06 05:07:03;;;;;;;3.83;2.30;;;1.50;99.80;;;;;;5031569;28;20229;-83
2021/04/06 05:09:30;;;;;;;7.30;2.10;;;1.60;99.80;;;;;;5018123;28;20711;-84
2021/04/06 05:11:57;;;;;;;4.30;2.60;;;1.60;99.80;;;;;;5032356;28;20712;-83
2021/04/06 05:14:26;;;;;;;7.10;2.65;;;1.70;99.80;;;;;;5031581;28;20324;-83
2021/04/06 05:16:54;;;;;;;6.00;2.30;;;1.80;99.80;;;;;;5031628;28;20689;-83
2021/04/06 05:19:21;;;;;;;4.40;2.53;;;1.80;99.80;;;;;;5032600;28;20752;-85
2021/04/06 05:21:48;;;;;;;10.20;2.80;;;1.80;99.80;;;;;;5034129;28;20307;-84
2021/04/06 05:24:15;;;;;;;3.50;2.40;;;1.80;99.80;;;;;;5029426;28;20236;-83
2021/04/06 05:26:42;;;;;;;6.10;2.72;;;1.80;99.80;;;;;;5033637;28;20232;-84
2021/04/06 05:29:09;;;;;;;4.15;2.80;;;1.80;99.80;;;;;;5036918;28;20228;-84
2021/04/06 05:31:36;;;;;;;5.95;2.20;;;1.80;99.80;;;;;;5038071;28;20251;-83
2021/04/06 05:34:04;;;;;;;6.78;2.47;;;1.70;99.80;;;;;;5032365;28;20886;-83
2021/04/06 05:36:31;;;;;;;7.03;2.65;;;1.80;99.80;;;;;;5038924;28;20236;-83
2021/04/06 05:38:58;;;;;;;3.50;2.60;;;1.80;99.80;;;;;;5034582;28;20237;-83
2021/04/06 05:41:26;;;;;;;3.45;2.30;;;1.80;99.80;;;;;;5033841;28;20233;-82
2021/04/06 05:44:00;;;;;;;7.82;2.80;;;1.90;99.80;;;;;;5033790;28;20228;-83
2021/04/06 05:46:30;;;;;;;4.95;3.15;;;2.00;99.80;;;;;;5032550;28;20220;-82
2021/04/06 05:49:01;;;;;;;5.47;2.75;;;2.10;99.80;;;;;;5034892;28;20598;-84
2021/04/06 05:51:30;;;;;;;5.78;2.80;;;2.20;99.80;;;;;;5033343;28;20250;-84
2021/04/06 05:53:57;;;;;;;8.13;2.97;;;2.30;99.80;;;;;;5030323;28;20244;-84
2021/04/06 05:56:24;;;;;;;4.97;3.30;;;2.30;99.80;;;;;;5032185;28;20335;-84
2021/04/06 05:58:58;;;;;;;10.00;3.35;;;2.30;99.80;;;;;;5031500;28;20317;-83
2021/04/06 06:01:27;;;;;;;6.63;4.35;;;2.30;99.80;;;;;;5029444;28;20226;-83
2021/04/06 06:03:54;;;;;;;5.72;2.50;;;2.40;99.80;;;;;;5031447;28;20319;-84
2021/04/06 06:06:22;;;;;;;6.00;2.40;;;2.30;99.80;;;;;;5032877;28;20229;-85
2021/04/06 06:08:51;;;;;;;3.17;2.72;;;2.30;99.80;;;;;;5033224;28;21209;-83
2021/04/06 06:11:19;;;;;;;7.07;2.20;;;2.30;99.80;;;;;;5031030;28;20231;-84
2021/04/06 06:13:46;;;;;;;6.03;2.67;;;2.40;99.80;;;;;;5033482;28;20468;-83
2021/04/06 06:16:20;;;;;;;5.13;2.92;;;2.30;99.80;;;;;;5034864;28;20239;-84
2021/04/06 06:18:59;;;;;;;5.75;2.78;;;2.40;99.80;;;;;;5032269;28;20228;-84
2021/04/06 06:21:41;;;;;;;6.90;2.88;;;2.30;99.80;;;;;;5030284;28;20314;-83
2021/04/06 06:24:11;;;;;;;2.30;1.98;;;2.40;99.80;;;;;;5031242;28;20225;-83
2021/04/06 06:26:38;;;;;;;8.38;2.70;;;2.50;99.80;;;;;;5030402;28;20225;-83
2021/04/06 06:29:09;;;;;;;6.90;3.15;;;2.50;99.80;;;;;;5033378;28;20295;-84
2021/04/06 06:31:45;;;;;;;7.90;3.88;;;2.60;99.80;;;;;;5026004;28;20680;-86
2021/04/06 06:34:33;;;;;;;6.88;3.10;;;2.70;99.80;;;;;;5029535;28;20239;-84
2021/04/06 06:37:07;;;;;;;6.75;3.40;;;2.70;99.80;;;;;;5033333;28;20245;-85
2021/04/06 06:39:36;;;;;;;4.55;3.40;;;2.70;99.80;;;;;;5022343;28;20234;-85
2021/04/06 06:42:05;;;;;;;6.68;4.25;;;2.70;99.80;;;;;;5028988;28;20235;-84
2021/04/06 06:44:33;;;;;;;22.35;4.35;;;2.60;99.80;;;;;;5033990;28;20240;-84
2021/04/06 06:47:05;;;;;;;6.25;3.60;;;2.80;99.80;;;;;;5032981;28;20251;-85
2021/04/06 06:49:35;;;;;;;9.52;3.72;;;2.70;99.80;;;;;;5031543;28;20320;-85
2021/04/06 06:52:04;;;;;;;7.90;3.80;;;2.70;99.80;;;;;;5031335;28;20237;-84
2021/04/06 06:54:39;;;;;;;4.00;3.15;;;2.70;99.80;;;;;;5028723;28;20247;-84
2021/04/06 06:57:12;;;;;;;8.93;3.63;;;2.70;99.80;;;;;;5030626;28;20416;-83
2021/04/06 06:59:41;;;;;;;4.18;2.55;;;2.70;99.80;;;;;;5031202;28;20224;-83
2021/04/06 07:02:22;;;;;;;5.60;3.10;;;2.70;99.80;;;;;;5031639;28;20303;-85
2021/04/06 07:04:50;;;;;;;7.47;2.92;;;2.70;99.80;;;;;;5030084;28;20224;-84
2021/04/06 07:07:17;;;;;;;3.55;2.40;;;2.70;99.80;;;;;;5032672;28;20221;-84
2021/04/06 07:09:48;;;;;;;9.18;2.70;;;2.80;99.80;;;;;;5031640;28;20328;-85
2021/04/06 07:12:17;;;;;;;7.10;3.00;;;2.80;99.80;;;;;;5029308;28;20236;-85
2021/04/06 07:14:47;;;;;;;6.18;2.88;;;2.80;99.80;;;;;;5028997;28;20315;-84
2021/04/06 07:17:15;;;;;;;5.55;3.25;;;2.80;99.80;;;;;;5032186;28;20248;-83
2021/04/06 07:19:44;;;;;;;3.37;2.47;;;2.80;99.80;;;;;;5029663;28;20221;-83
2021/04/06 07:22:14;;;;;;;6.30;3.45;;;2.90;99.80;;;;;;5030277;28;20480;-83
2021/04/06 07:24:42;;;;;;;14.05;5.47;;;2.90;99.80;;;;;;5031372;28;20312;-84
2021/04/06 07:27:12;;;;;;;8.43;4.00;;;3.00;99.80;;;;;;5030833;28;20246;-84
2021/04/06 07:29:41;;;;;;;7.38;3.05;;;3.00;99.80;;;;;;5030907;28;20229;-83
2021/04/06 07:32:13;;;;;;;4.63;2.15;;;3.10;99.80;;;;;;5032475;28;20253;-83
2021/04/06 07:34:41;;;;;;;7.32;3.58;;;3.20;99.80;;;;;;5032190;28;20267;-84
2021/04/06 07:37:11;;;;;;;4.63;3.10;;;3.30;99.80;;;;;;5032001;28;20313;-85
2021/04/06 07:39:40;;;;;;;5.82;2.35;;;3.40;98.40;;;;;;5031677;28;20236;-84
2021/04/06 07:42:08;;;;;;;6.55;4.07;;;3.60;96.50;;;;;;5027141;28;20283;-86
2021/04/06 07:44:37;;;;;;;9.00;4.23;;;3.70;97.50;;;;;;5029910;28;20225;-83
2021/04/06 07:47:05;;;;;;;8.23;3.10;;;3.80;96.40;;;;;;5024396;28;20961;-86
2021/04/06 07:49:40;;;;;;;13.90;4.35;;;4.00;96.80;;;;;;5028570;28;20218;-84
2021/04/06 07:52:20;;;;;;;12.95;6.90;;;4.10;94.40;;;;;;5026302;28;20241;-83
2021/04/06 07:54:51;;;;;;;22.08;9.73;;;4.10;93.70;;;;;;5029667;28;20308;-85
2021/04/06 07:57:19;;;;;;;5.97;3.72;;;4.20;94.40;;;;;;5030357;28;20715;-83
2021/04/06 07:59:54;;;;;;;4.17;3.33;;;4.20;93.60;;;;;;5027042;28;20221;-84
2021/04/06 08:02:33;;;;;;;5.97;3.70;;;4.20;92.90;;;;;;5028367;28;20547;-85
2021/04/06 08:05:06;;;;;;;7.93;2.63;;;4.20;93.00;;;;;;5032080;28;20237;-85
2021/04/06 08:07:35;;;;;;;10.27;2.92;;;4.20;92.80;;;;;;5028125;28;20544;-83
2021/04/06 08:10:38;;;;;;;9.73;3.30;;;4.20;92.70;;;;;;5030862;28;20233;-83
2021/04/06 08:13:05;;;;;;;5.82;3.22;;;4.20;93.10;;;;;;5020811;28;20772;-84
2021/04/06 08:15:35;;;;;;;3.70;2.30;;;4.20;92.30;;;;;;5027449;28;20247;-84
2021/04/06 08:18:05;;;;;;;5.30;2.40;;;4.20;92.30;;;;;;5028998;28;20476;-86
2021/04/06 08:20:41;;;;;;;3.10;2.43;;;4.20;91.80;;;;;;5023295;28;20468;-85
2021/04/06 08:23:11;;;;;;;4.93;2.63;;;4.30;90.70;;;;;;5013820;28;20564;-84
2021/04/06 08:25:55;;;;;;;6.68;2.13;;;4.30;88.90;;;;;;5013449;28;20473;-84
2021/04/06 08:28:47;;;;;;;5.20;3.00;;;4.30;89.00;;;;;;5017624;28;20237;-84
2021/04/06 08:31:39;;;;;;;4.72;3.40;;;4.20;89.20;;;;;;5001560;28;20465;-84
2021/04/06 08:34:36;;;;;;;6.80;2.23;;;4.20;88.90;;;;;;5022197;28;20235;-84
2021/04/06 08:37:14;;;;;;;4.30;2.70;;;4.10;88.10;;;;;;5015853;28;20556;-84
2021/04/06 08:39:42;;;;;;;6.80;3.22;;;4.10;89.40;;;;;;5016981;28;20465;-85
2021/04/06 08:42:14;;;;;;;4.83;2.57;;;4.10;89.40;;;;;;5012878;28;20237;-85
2021/04/06 08:44:45;;;;;;;4.78;3.33;;;4.00;90.00;;;;;;5016214;28;20547;-85
2021/04/06 08:47:37;;;;;;;5.77;3.13;;;4.00;89.60;;;;;;5017204;28;20218;-85
2021/04/06 08:50:06;;;;;;;4.13;2.55;;;4.10;89.50;;;;;;5021940;28;20460;-85
2021/04/06 08:52:34;;;;;;;11.57;2.78;;;4.10;88.80;;;;;;5014850;28;20316;-83
2021/04/06 08:55:09;;;;;;;4.57;2.33;;;4.20;88.60;;;;;;5012963;28;20213;-85
2021/04/06 08:57:36;;;;;;;7.40;2.33;;;4.30;87.80;;;;;;5020508;28;20332;-84
2021/04/06 09:00:08;;;;;;;13.97;3.00;;;4.70;87.10;;;;;;4997904;28;20261;-85
2021/04/06 09:02:35;;;;;;;5.27;2.60;;;4.80;86.10;;;;;;5015968;28;21038;-84
2021/04/06 09:05:04;;;;;;;7.60;3.70;;;4.90;86.80;;;;;;5025391;28;20483;-83
2021/04/06 09:07:33;;;;;;;3.83;2.43;;;5.30;86.30;;;;;;5025609;28;20879;-84
2021/04/06 09:10:02;;;;;;;7.83;2.40;;;5.60;85.20;;;;;;5018696;28;20463;-86
2021/04/06 09:12:29;;;;;;;4.27;2.30;;;5.80;84.00;;;;;;5025519;28;20482;-85
2021/04/06 09:14:57;;;;;;;5.20;2.73;;;6.30;84.60;;;;;;5024026;28;20671;-87
2021/04/06 09:17:27;;;;;;;6.50;2.13;;;6.60;82.50;;;;;;5037191;28;20468;-86
2021/04/06 09:19:55;;;;;;;5.40;2.57;;;6.60;81.40;;;;;;5030131;28;20480;-87
2021/04/06 09:22:23;;;;;;;8.27;2.37;;;6.70;81.90;;;;;;5016198;28;20842;-86
2021/04/06 09:24:51;;;;;;;4.33;2.00;;;6.90;80.20;;;;;;5015882;28;20476;-86
2021/04/06 09:27:18;;;;;;;5.13;2.40;;;7.30;79.80;;;;;;5010111;28;22207;-84
2021/04/06 09:29:47;;;;;;;4.10;2.00;;;7.50;76.80;;;;;;5000876;28;20484;-84
2021/04/06 09:32:16;;;;;;;3.03;1.90;;;7.40;76.20;;;;;;5020461;28;20503;-86
2021/04/06 09:34:46;;;;;;;4.60;2.00;;;7.40;75.60;;;;;;5016541;28;20472;-87
2021/04/06 09:37:15;;;;;;;14.73;1.80;;;7.30;76.40;;;;;;5022877;28;20491;-87
2021/04/06 09:39:46;;;;;;;5.73;2.30;;;7.30;76.80;;;;;;5026374;28;21088;-85
2021/04/06 09:42:14;;;;;;;9.93;2.10;;;7.60;76.50;;;;;;5040329;28;20484;-85
2021/04/06 09:44:43;;;;;;;2.83;1.70;;;7.70;74.70;;;;;;5017436;28;20468;-86
2021/04/06 09:47:12;;;;;;;4.10;2.37;;;8.00;75.40;;;;;;5030248;28;20473;-84
2021/04/06 09:49:41;;;;;;;2.40;2.20;;;7.90;75.00;;;;;;5032140;28;20472;-85
2021/04/06 09:52:12;;;;;;;1.93;1.83;;;7.80;75.70;;;;;;5029347;28;20524;-84
2021/04/06 09:54:44;;;;;;;6.57;2.10;;;7.40;76.00;;;;;;5028782;28;20458;-84
2021/04/06 09:57:12;;;;;;;3.33;2.13;;;7.00;78.80;;;;;;5012526;28;20882;-85
2021/04/06 09:59:40;;;;;;;2.87;1.73;;;6.70;79.20;;;;;;5018464;28;20503;-85
2021/04/06 10:02:14;;;;;;;8.43;2.10;;;6.50;80.40;;;;;;5029218;28;20468;-85
2021/04/06 10:04:45;;;;;;;2.40;1.90;;;6.50;81.00;;;;;;5010335;28;20473;-84
2021/04/06 10:07:16;;;;;;;5.23;2.10;;;6.70;81.60;;;;;;5024208;28;20859;-83
2021/04/06 10:09:45;;;;;;;3.33;2.00;;;6.40;80.80;;;;;;5014371;28;20900;-84
2021/04/06 10:12:13;;;;;;;6.53;1.93;;;6.10;81.00;;;;;;5017730;28;20468;-84
2021/04/06 10:14:42;;;;;;;3.70;1.87;;;5.60;82.10;;;;;;5018964;28;20509;-85
2021/04/06 10:17:11;;;;;;;2.87;1.80;;;5.60;82.20;;;;;;5020215;28;20460;-84
2021/04/06 10:19:40;;;;;;;3.00;1.70;;;5.60;82.30;;;;;;5027032;28;20475;-84
2021/04/06 10:22:11;;;;;;;2.57;1.43;;;5.60;81.60;;;;;;5029830;28;20854;-84
2021/04/06 10:24:41;;;;;;;5.30;2.00;;;5.90;80.10;;;;;;5026854;28;21019;-84
2021/04/06 10:27:14;;;;;;;2.40;1.83;;;6.30;79.50;;;;;;5014713;28;20496;-84
2021/04/06 10:29:41;;;;;;;6.67;2.23;;;6.50;79.80;;;;;;5013715;28;20500;-84
2021/04/06 10:32:29;;;;;;;2.20;1.90;;;6.50;77.20;;;;;;5042194;28;20489;-84
2021/04/06 10:34:59;;;;;;;7.90;1.80;;;6.40;78.00;;;;;;5020015;28;20478;-83
2021/04/06 10:37:41;;;;;;;4.63;2.00;;;6.90;77.60;;;;;;5007643;28;20482;-85
2021/04/06 10:40:37;;;;;;;5.53;2.07;;;7.30;76.50;;;;;;5000981;28;21277;-84
2021/04/06 10:43:08;;;;;;;4.57;2.00;;;7.40;74.80;;;;;;4972690;28;20520;-84
2021/04/06 10:45:39;;;;;;;1.93;1.70;;;7.20;75.50;;;;;;4998037;28;20469;-84
2021/04/06 10:48:10;;;;;;;4.33;2.50;;;7.40;74.10;;;;;;5020969;28;20982;-86
2021/04/06 10:50:40;;;;;;;2.13;1.63;;;7.30;72.60;;;;;;5015271;28;20469;-84
2021/04/06 10:53:32;;;;;;;3.43;1.87;;;7.00;74.40;;;;;;5034063;28;20487;-86
2021/04/06 10:56:08;;;;;;;2.13;1.80;;;6.80;73.40;;;;;;5001190;28;20469;-85
2021/04/06 10:58:38;;;;;;;6.77;2.00;;;6.50;72.30;;;;;;5017134;28;20476;-85
2021/04/06 11:01:08;;;;;;;2.20;2.00;;;6.20;74.00;;;;;;5017085;28;20576;-85
2021/04/06 11:03:44;;;;;;;2.20;2.00;;;5.90;75.10;;;;;;5028063;28;20503;-84
2021/04/06 11:06:15;;;;;;;3.10;2.17;;;5.50;85.80;;;;;;5027733;28;20950;-86
2021/04/06 11:08:44;;;;;;;2.45;1.20;;;4.80;93.50;;;;;;5022392;28;20487;-84
2021/04/06 11:11:18;;;;;;;1.30;1.20;;;4.10;97.50;;;;;;5022572;28;20312;-85
2021/04/06 11:13:46;;;;;;;1.77;1.63;;;3.40;99.80;;;;;;5012970;28;20247;-83
2021/04/06 11:16:14;;;;;;;3.67;1.25;;;3.20;99.80;;;;;;5042506;28;20256;-84
2021/04/06 11:18:42;;;;;;;2.10;1.40;;;3.20;99.80;;;;;;5023281;28;20229;-85
2021/04/06 11:21:10;;;;;;;2.15;1.77;;;3.50;99.80;;;;;;5016402;28;20248;-84
2021/04/06 11:23:37;;;;;;;2.20;2.00;;;3.90;98.90;;;;;;5033729;28;20279;-84
2021/04/06 11:26:04;;;;;;;4.47;2.92;;;4.20;95.60;;;;;;5018440;28;20229;-85
2021/04/06 11:28:31;;;;;;;4.10;2.67;;;4.90;93.00;;;;;;5008114;28;20225;-87
2021/04/06 11:30:59;;;;;;;3.80;2.30;;;5.40;91.00;;;;;;5036357;28;20260;-87
2021/04/06 11:33:28;;;;;;;6.70;2.47;;;6.10;86.30;;;;;;5027755;28;20226;-85
2021/04/06 11:35:56;;;;;;;2.97;2.53;;;6.60;82.90;;;;;;5027438;28;20571;-86
2021/04/06 11:38:23;;;;;;;4.73;2.20;;;7.10;81.20;;;;;;5028315;28;20456;-86
2021/04/06 11:40:49;;;;;;;5.10;2.73;;;7.80;80.30;;;;;;5026656;28;20473;-85
2021/04/06 11:43:17;;;;;;;3.70;2.50;;;8.60;79.10;;;;;;5017382;28;20553;-86
2021/04/06 11:45:44;;;;;;;3.97;2.50;;;9.40;76.80;;;;;;5012028;28;20915;-86
2021/04/06 11:48:12;;;;;;;2.80;2.30;;;10.40;74.40;;;;;;5024521;28;20463;-84
2021/04/06 11:50:39;;;;;;;7.70;2.20;;;11.80;67.10;;;;;;5012582;28;20501;-85
2021/04/06 11:53:06;;;;;;;4.30;1.60;;;13.40;62.50;;;;;;5028280;28;20496;-85
2021/04/06 11:55:33;;;;;;;2.10;1.63;;;14.00;60.10;;;;;;5029712;28;20465;-85
2021/04/06 11:58:04;;;;;;;1.63;1.53;;;15.40;58.30;;;;;;5020338;28;20464;-85
2021/04/06 12:00:31;;;;;;;2.67;1.73;;;16.40;56.20;;;;;;5028480;28;20468;-84
2021/04/06 12:02:58;;;;;;;3.47;3.00;;;14.60;56.80;;;;;;5040238;28;20480;-84
2021/04/06 12:05:27;;;;;;;3.07;2.10;;;11.80;61.50;;;;;;5027385;28;20805;-85
2021/04/06 12:07:54;;;;;;;1.90;1.80;;;11.10;64.40;;;;;;5030150;28;20488;-85
2021/04/06 12:10:21;;;;;;;3.27;1.70;;;13.40;60.50;;;;;;5025817;28;20473;-85
2021/04/06 12:12:50;;;;;;;2.27;1.50;;;16.00;57.30;;;;;;5021680;28;20482;-85
2021/04/06 12:15:18;;;;;;;1.60;1.50;;;17.50;50.00;;;;;;5017116;28;20475;-85
2021/04/06 12:17:46;;;;;;;1.53;1.43;;;18.70;49.60;;;;;;5034395;28;20477;-85
2021/04/06 12:20:15;;;;;;;2.60;1.73;;;19.60;46.80;;;;;;5022944;28;20486;-84
2021/04/06 12:22:43;;;;;;;2.27;1.60;;;19.30;46.50;;;;;;5027877;28;20960;-86
2021/04/06 12:25:12;;;;;;;3.40;1.73;;;19.70;46.30;;;;;;5016366;28;20497;-86
2021/04/06 12:27:40;;;;;;;3.90;1.43;;;18.90;47.10;;;;;;5026834;28;21016;-86
2021/04/06 12:30:08;;;;;;;1.20;0.97;;;16.20;50.00;;;;;;5021800;28;20461;-86
2021/04/06 12:32:35;;;;;;;2.20;1.30;;;13.30;53.00;;;;;;5015766;28;20476;-85
2021/04/06 12:35:02;;;;;;;1.33;1.23;;;12.70;54.90;;;;;;5012939;28;20476;-86
2021/04/06 12:37:32;;;;;;;1.13;1.03;;;13.90;53.90;;;;;;5011053;28;20481;-85
2021/04/06 12:40:07;;;;;;;2.20;1.33;;;14.80;52.50;;;;;;5018181;28;20483;-85
2021/04/06 12:42:35;;;;;;;4.80;1.37;;;13.20;55.30;;;;;;5015652;28;20555;-85
2021/04/06 12:45:05;;;;;;;1.60;1.40;;;11.50;59.60;;;;;;5013670;28;20483;-85
2021/04/06 12:47:32;;;;;;;3.27;1.43;;;11.00;61.20;;;;;;5027550;28;20482;-85
2021/04/06 12:49:59;;;;;;;1.40;1.27;;;10.50;59.30;;;;;;5029132;28;20476;-85
2021/04/06 12:52:26;;;;;;;2.70;1.77;;;9.90;61.50;;;;;;5009787;28;21029;-85
2021/04/06 12:54:56;;;;;;;5.93;1.50;;;10.00;63.10;;;;;;5032168;28;20478;-86
2021/04/06 12:57:24;;;;;;;1.33;0.93;;;13.10;61.20;;;;;;4993001;28;20501;-86
2021/04/06 12:59:53;;;;;;;1.13;1.00;;;16.50;53.50;;;;;;5015759;28;21035;-86
2021/04/06 13:02:20;;;;;;;2.40;1.13;;;19.60;46.20;;;;;;5035414;28;20475;-86
2021/04/06 13:04:48;;;;;;;2.27;1.10;;;19.70;46.10;;;;;;5028684;28;20519;-86
2021/04/06 13:07:16;;;;;;;1.20;1.10;;;21.10;44.90;;;;;;5017220;28;21224;-86
2021/04/06 13:09:43;;;;;;;1.50;1.17;;;22.10;43.80;;;;;;5026395;28;20997;-86